createdAt,value
2023-05-01T00:00:21.042Z,146800.44
2023-05-01T00:01:28.094Z,146798.03
2023-05-01T00:02:30.919Z,146786.00
2023-05-01T00:04:36.177Z,146764.25
2023-05-01T00:05:38.472Z,146754.59
2023-05-01T00:06:40.720Z,146750.94
2023-05-01T00:07:42.924Z,146744.91
2023-05-01T00:08:45.062Z,146747.31
2023-05-01T00:09:47.420Z,146740.09
2023-05-01T00:10:49.532Z,146726.81
2023-05-01T00:11:51.665Z,146723.22
2023-05-01T00:12:53.817Z,146718.34
2023-05-01T00:13:55.957Z,146726.81
2023-05-01T00:14:58.196Z,146730.44
2023-05-01T00:16:00.475Z,146748.53
2023-05-01T00:17:02.652Z,146748.53
2023-05-01T00:18:04.895Z,146740.09
2023-05-01T00:19:08.262Z,146726.81
2023-05-01T00:20:10.851Z,146725.63
2023-05-01T00:21:12.973Z,146719.53
2023-05-01T00:22:15.230Z,146723.22
2023-05-01T00:23:17.359Z,146722.00
2023-05-01T00:24:19.498Z,146729.22
2023-05-01T00:25:21.773Z,146737.66
2023-05-01T00:26:27.087Z,146732.84
2023-05-01T00:27:29.290Z,146744.91
2023-05-01T00:28:31.566Z,146736.47
2023-05-01T00:29:33.732Z,146728.03
2023-05-01T00:30:35.963Z,146731.66
2023-05-01T00:31:38.303Z,146713.53
2023-05-01T00:32:40.574Z,146711.13
2023-05-01T00:33:42.777Z,146713.53
2023-05-01T00:34:47.756Z,146714.72
2023-05-01T00:35:51.442Z,146706.28
2023-05-01T00:36:53.635Z,146706.28
2023-05-01T00:37:55.932Z,146694.25
2023-05-01T00:38:58.065Z,146685.75
2023-05-01T00:40:00.243Z,146696.66
2023-05-01T00:41:02.491Z,146683.34
2023-05-01T00:42:04.624Z,146679.72
2023-05-01T00:43:06.889Z,146676.09
2023-05-01T00:44:09.000Z,146658.03
2023-05-01T00:45:11.443Z,146648.34
2023-05-01T00:46:14.015Z,146643.53
2023-05-01T00:47:16.486Z,146641.13
2023-05-01T00:48:18.702Z,146639.91
2023-05-01T00:49:20.978Z,146629.06
2023-05-01T00:50:23.274Z,146631.47
2023-05-01T00:51:27.300Z,146639.91
2023-05-01T00:52:29.539Z,146631.47
2023-05-01T00:53:33.686Z,146655.63
2023-05-01T00:54:37.032Z,146631.47
2023-05-01T00:55:42.071Z,146643.53
2023-05-01T00:56:44.280Z,146607.34
2023-05-01T00:57:47.381Z,146607.34
2023-05-01T00:58:54.426Z,146625.44
2023-05-01T00:59:56.962Z,146600.09
2023-05-01T01:00:59.446Z,146601.31
2023-05-01T01:02:01.738Z,146604.91
2023-05-01T01:03:04.771Z,146609.75
2023-05-01T01:04:07.125Z,146612.16
2023-05-01T01:05:09.491Z,146614.56
2023-05-01T01:06:21.987Z,146656.84
2023-05-01T01:07:55.687Z,146665.25
2023-05-01T01:09:29.006Z,146667.69
2023-05-01T01:10:43.493Z,146645.94
2023-05-01T01:12:09.329Z,146645.94
2023-05-01T01:13:22.573Z,146653.16
2023-05-01T01:14:34.123Z,146660.44
2023-05-01T01:15:44.637Z,146629.06
2023-05-01T01:16:48.456Z,146621.78
2023-05-01T01:18:05.420Z,146635.09
2023-05-01T01:20:08.746Z,146621.78
2023-05-01T01:21:42.904Z,146602.50
2023-05-01T01:22:54.277Z,146606.13
2023-05-01T01:23:56.448Z,146575.97
2023-05-01T01:24:59.129Z,146573.53
2023-05-01T01:26:14.090Z,146559.09
2023-05-01T01:27:28.581Z,146547.00
2023-05-01T01:28:46.316Z,146525.28
2023-05-01T01:30:04.681Z,146554.22
2023-05-01T01:31:34.529Z,146549.41
2023-05-01T01:32:53.975Z,146556.63
2023-05-01T01:34:02.516Z,146554.22
2023-05-01T01:35:08.078Z,146544.59
2023-05-01T01:36:20.135Z,146566.31
2023-05-01T01:37:36.567Z,146583.19
2023-05-01T01:38:46.512Z,146581.97
2023-05-01T01:40:09.025Z,146590.47
2023-05-01T01:41:35.168Z,146608.53
2023-05-01T01:42:49.524Z,146604.91
2023-05-01T01:44:22.938Z,146629.06
2023-05-01T01:45:37.189Z,146631.47
2023-05-01T01:46:42.775Z,146607.34
2023-05-01T01:47:47.855Z,146608.53
2023-05-01T01:48:52.694Z,146612.16
2023-05-01T01:49:56.419Z,146607.34
2023-05-01T01:51:00.231Z,146614.56
2023-05-01T01:52:06.151Z,146629.06
2023-05-01T01:53:11.786Z,146627.88
2023-05-01T01:54:18.443Z,146662.84
2023-05-01T01:55:27.620Z,146666.47
2023-05-01T01:56:32.998Z,146667.69
2023-05-01T01:57:37.874Z,146671.28
2023-05-01T01:58:41.517Z,146660.44
2023-05-01T01:59:46.236Z,146654.38
2023-05-01T02:00:49.733Z,146671.28
2023-05-01T02:01:55.168Z,146691.81
2023-05-01T02:03:00.808Z,146697.84
2023-05-01T02:04:05.471Z,146703.88
2023-05-01T02:05:08.986Z,146684.56
2023-05-01T02:06:13.117Z,146686.97
2023-05-01T02:07:18.559Z,146673.69
2023-05-01T02:08:21.362Z,146666.47
2023-05-01T02:09:24.849Z,146670.09
2023-05-01T02:10:28.835Z,146668.88
2023-05-01T02:11:32.159Z,146678.53
2023-05-01T02:12:35.715Z,146674.91
2023-05-01T02:13:39.751Z,146691.81
2023-05-01T02:14:43.000Z,146670.09
2023-05-01T02:15:46.469Z,146679.72
2023-05-01T02:16:50.141Z,146691.81
2023-05-01T02:17:52.896Z,146689.41
2023-05-01T02:18:56.719Z,146684.56
2023-05-01T02:19:59.678Z,146680.94
2023-05-01T02:21:04.524Z,146696.66
2023-05-01T02:22:12.618Z,146684.56
2023-05-01T02:23:15.068Z,146685.75
2023-05-01T02:24:19.426Z,146690.63
2023-05-01T02:25:22.248Z,146684.56
2023-05-01T02:26:29.217Z,146699.06
2023-05-01T02:27:35.908Z,146678.53
2023-05-01T02:28:41.507Z,146665.25
2023-05-01T02:29:44.305Z,146650.75
2023-05-01T02:30:47.223Z,146642.31
2023-05-01T02:31:49.411Z,146641.13
2023-05-01T02:32:51.719Z,146648.34
2023-05-01T02:33:53.871Z,146642.31
2023-05-01T02:34:56.243Z,146638.72
2023-05-01T02:35:58.641Z,146631.47
2023-05-01T02:37:01.117Z,146630.28
2023-05-01T02:38:03.393Z,146633.88
2023-05-01T02:39:06.618Z,146632.69
2023-05-01T02:40:11.327Z,146641.13
2023-05-01T02:41:15.767Z,146645.94
2023-05-01T02:42:20.125Z,146644.72
2023-05-01T02:43:23.341Z,146629.06
2023-05-01T02:44:27.815Z,146635.09
2023-05-01T02:45:32.300Z,146636.28
2023-05-01T02:46:36.968Z,146642.31
2023-05-01T02:47:44.028Z,146648.34
2023-05-01T02:48:46.805Z,146632.69
2023-05-01T02:49:51.121Z,146643.53
2023-05-01T02:50:55.563Z,146641.13
2023-05-01T02:51:58.429Z,146645.94
2023-05-01T02:53:02.234Z,146655.63
2023-05-01T02:54:21.557Z,146691.81
2023-05-01T02:55:23.909Z,146662.84
2023-05-01T02:56:28.054Z,146679.72
2023-05-01T02:57:30.251Z,146674.91
2023-05-01T02:58:32.969Z,146682.13
2023-05-01T02:59:35.299Z,146662.84
2023-05-01T03:00:37.490Z,146665.25
2023-05-01T03:01:40.086Z,146650.75
2023-05-01T03:02:42.508Z,146653.16
2023-05-01T03:03:44.770Z,146643.53
2023-05-01T03:04:47.387Z,146639.91
2023-05-01T03:05:49.669Z,146636.28
2023-05-01T03:06:52.103Z,146633.88
2023-05-01T03:07:54.382Z,146615.75
2023-05-01T03:08:56.681Z,146621.78
2023-05-01T03:09:58.793Z,146631.47
2023-05-01T03:11:05.101Z,146654.38
2023-05-01T03:12:07.474Z,146616.97
2023-05-01T03:13:11.230Z,146614.56
2023-05-01T03:14:13.667Z,146602.50
2023-05-01T03:15:17.718Z,146588.00
2023-05-01T03:16:19.898Z,146590.47
2023-05-01T03:17:22.637Z,146590.47
2023-05-01T03:18:24.889Z,146588.00
2023-05-01T03:19:27.090Z,146595.28
2023-05-01T03:20:29.733Z,146590.47
2023-05-01T03:21:32.845Z,146591.66
2023-05-01T03:22:35.265Z,146583.19
2023-05-01T03:23:38.367Z,146585.59
2023-05-01T03:24:40.666Z,146581.97
2023-05-01T03:25:42.799Z,146578.38
2023-05-01T03:26:44.944Z,146568.72
2023-05-01T03:27:47.091Z,146563.91
2023-05-01T03:28:49.296Z,146560.28
2023-05-01T03:29:52.446Z,146550.63
2023-05-01T03:30:54.852Z,146547.00
2023-05-01T03:31:57.888Z,146560.28
2023-05-01T03:33:00.200Z,146551.81
2023-05-01T03:34:06.105Z,146532.53
2023-05-01T03:35:09.413Z,146520.41
2023-05-01T03:36:12.434Z,146510.75
2023-05-01T03:37:15.218Z,146505.94
2023-05-01T03:38:19.117Z,146496.31
2023-05-01T03:39:39.561Z,146510.75
2023-05-01T03:41:00.277Z,146496.31
2023-05-01T03:42:21.002Z,146481.81
2023-05-01T03:43:25.440Z,146510.75
2023-05-01T03:44:28.746Z,146493.91
2023-05-01T03:45:31.031Z,146479.41
2023-05-01T03:46:33.310Z,146477.00
2023-05-01T03:47:35.978Z,146479.41
2023-05-01T03:48:38.635Z,146485.44
2023-05-01T03:49:43.622Z,146483.00
2023-05-01T03:50:46.974Z,146481.81
2023-05-01T03:51:50.574Z,146480.59
2023-05-01T03:52:53.781Z,146475.78
2023-05-01T03:53:58.980Z,146464.94
2023-05-01T03:55:06.078Z,146460.13
2023-05-01T03:56:13.543Z,146452.84
2023-05-01T03:57:15.887Z,146443.22
2023-05-01T03:58:18.216Z,146439.63
2023-05-01T03:59:20.510Z,146436.00
2023-05-01T04:00:22.785Z,146427.56
2023-05-01T04:01:25.071Z,146416.69
2023-05-01T04:02:27.768Z,146414.28
2023-05-01T04:03:30.565Z,146419.09
2023-05-01T04:04:33.283Z,146415.47
2023-05-01T04:05:36.014Z,146409.47
2023-05-01T04:06:39.049Z,146416.69
2023-05-01T04:07:42.229Z,146420.28
2023-05-01T04:08:44.589Z,146416.69
2023-05-01T04:09:48.407Z,146416.69
2023-05-01T04:10:50.913Z,146411.88
2023-05-01T04:11:53.390Z,146410.66
2023-05-01T04:12:55.618Z,146433.59
2023-05-01T04:13:57.853Z,146450.44
2023-05-01T04:15:00.289Z,146457.69
2023-05-01T04:16:02.989Z,146448.03
2023-05-01T04:17:05.284Z,146455.28
2023-05-01T04:18:11.187Z,146452.84
2023-05-01T04:19:13.492Z,146452.84
2023-05-01T04:20:19.513Z,146455.28
2023-05-01T04:21:22.282Z,146461.34
2023-05-01T04:22:27.154Z,146462.53
2023-05-01T04:23:29.364Z,146460.13
2023-05-01T04:24:34.075Z,146462.53
2023-05-01T04:25:37.002Z,146472.19
2023-05-01T04:26:44.803Z,146466.16
2023-05-01T04:27:47.092Z,146474.59
2023-05-01T04:28:50.908Z,146477.00
2023-05-01T04:29:57.561Z,146478.19
2023-05-01T04:31:00.789Z,146479.41
2023-05-01T04:32:03.242Z,146486.63
2023-05-01T04:33:11.337Z,146487.84
2023-05-01T04:34:14.035Z,146491.44
2023-05-01T04:35:16.616Z,146510.75
2023-05-01T04:36:20.116Z,146515.59
2023-05-01T04:37:22.347Z,146530.13
2023-05-01T04:38:24.797Z,146532.53
2023-05-01T04:39:30.308Z,146539.78
2023-05-01T04:40:33.255Z,146531.34
2023-05-01T04:41:35.497Z,146532.53
2023-05-01T04:42:39.334Z,146549.41
2023-05-01T04:43:44.696Z,146557.88
2023-05-01T04:44:47.849Z,146569.94
2023-05-01T04:45:50.707Z,146580.78
2023-05-01T04:46:52.960Z,146581.97
2023-05-01T04:47:55.309Z,146600.09
2023-05-01T04:48:57.520Z,146602.50
2023-05-01T04:49:59.702Z,146602.50
2023-05-01T04:51:03.724Z,146606.13
2023-05-01T04:52:08.963Z,146609.75
2023-05-01T04:53:26.608Z,146615.75
2023-05-01T04:54:28.939Z,146633.88
2023-05-01T04:55:31.613Z,146643.53
2023-05-01T04:56:52.933Z,146658.03
2023-05-01T04:57:57.644Z,146677.31
2023-05-01T04:59:00.034Z,146684.56
2023-05-01T05:00:03.965Z,146676.09
2023-05-01T05:01:09.308Z,146694.25
2023-05-01T05:02:11.588Z,146718.34
2023-05-01T05:03:13.894Z,146713.53
2023-05-01T05:04:16.860Z,146723.22
2023-05-01T05:05:18.991Z,146734.06
2023-05-01T05:06:21.880Z,146713.53
2023-05-01T05:07:24.103Z,146715.94
2023-05-01T05:09:04.366Z,146722.00
2023-05-01T05:10:07.057Z,146738.88
2023-05-01T05:11:09.318Z,146749.72
2023-05-01T05:12:34.529Z,146763.03
2023-05-01T05:13:37.124Z,146758.22
2023-05-01T05:14:47.904Z,146764.25
2023-05-01T05:15:52.512Z,146779.91
2023-05-01T05:16:57.361Z,146783.53
2023-05-01T05:18:01.286Z,146783.53
2023-05-01T05:19:05.079Z,146771.47
2023-05-01T05:20:11.899Z,146793.22
2023-05-01T05:21:14.552Z,146795.63
2023-05-01T05:22:23.691Z,146839.09
2023-05-01T05:23:52.619Z,146858.41
2023-05-01T05:24:55.827Z,146868.06
2023-05-01T05:26:01.179Z,146886.19
2023-05-01T05:27:04.080Z,146887.41
2023-05-01T05:28:06.267Z,146900.69
2023-05-01T05:29:08.623Z,146906.72
2023-05-01T05:30:11.382Z,146923.63
2023-05-01T05:31:14.259Z,146939.31
2023-05-01T05:32:16.538Z,146935.69
2023-05-01T05:33:18.886Z,146938.09
2023-05-01T05:34:21.130Z,146950.22
2023-05-01T05:35:23.595Z,146974.34
2023-05-01T05:36:27.716Z,146986.44
2023-05-01T05:37:30.270Z,146975.56
2023-05-01T05:38:33.045Z,146999.72
2023-05-01T05:39:35.573Z,147003.34
2023-05-01T05:40:37.872Z,147022.69
2023-05-01T05:41:40.070Z,147034.75
2023-05-01T05:42:42.254Z,147039.56
2023-05-01T05:43:44.421Z,147039.56
2023-05-01T05:44:46.599Z,147066.16
2023-05-01T05:45:49.449Z,147083.09
2023-05-01T05:46:51.651Z,147091.56
2023-05-01T05:48:03.764Z,147102.41
2023-05-01T05:49:08.735Z,147086.72
2023-05-01T05:50:11.327Z,147101.22
2023-05-01T05:51:14.261Z,147102.41
2023-05-01T05:52:16.913Z,147137.50
2023-05-01T05:53:20.132Z,147176.22
2023-05-01T05:54:22.491Z,147177.44
2023-05-01T05:55:26.218Z,147172.56
2023-05-01T05:56:37.414Z,147208.84
2023-05-01T05:57:39.674Z,147214.88
2023-05-01T05:58:42.176Z,147248.75
2023-05-01T05:59:45.004Z,147283.81
2023-05-01T06:00:50.126Z,147305.53
2023-05-01T06:01:52.571Z,147287.41
2023-05-01T06:02:55.017Z,147300.69
2023-05-01T06:03:58.162Z,147332.16
2023-05-01T06:05:03.150Z,147339.44
2023-05-01T06:06:06.074Z,147317.66
2023-05-01T06:07:08.589Z,147344.28
2023-05-01T06:08:11.923Z,147370.84
2023-05-01T06:09:14.949Z,147412.00
2023-05-01T06:10:17.637Z,147408.38
2023-05-01T06:11:21.589Z,147409.56
2023-05-01T06:12:24.441Z,147432.53
2023-05-01T06:13:27.078Z,147474.91
2023-05-01T06:14:29.241Z,147488.19
2023-05-01T06:15:32.006Z,147520.84
2023-05-01T06:16:35.144Z,147557.19
2023-05-01T06:17:37.634Z,147583.81
2023-05-01T06:18:40.005Z,147585.03
2023-05-01T06:19:42.266Z,147626.16
2023-05-01T06:20:47.284Z,147652.81
2023-05-01T06:21:49.674Z,147673.41
2023-05-01T06:22:51.976Z,147696.38
2023-05-01T06:24:02.395Z,147733.94
2023-05-01T06:25:12.133Z,147765.41
2023-05-01T06:26:14.343Z,147787.19
2023-05-01T06:27:16.620Z,147828.38
2023-05-01T06:28:18.818Z,147857.41
2023-05-01T06:29:20.999Z,147887.69
2023-05-01T06:30:23.180Z,147905.88
2023-05-01T06:31:26.135Z,147930.16
2023-05-01T06:32:30.951Z,147879.22
2023-05-01T06:33:34.281Z,147939.84
2023-05-01T06:34:45.556Z,147936.22
2023-05-01T06:35:48.440Z,147909.50
2023-05-01T06:36:50.856Z,147884.06
2023-05-01T06:37:54.407Z,147847.75
2023-05-01T06:38:56.598Z,147905.88
2023-05-01T06:39:58.953Z,147949.53
2023-05-01T06:41:01.370Z,147959.25
2023-05-01T06:42:03.643Z,148013.72
2023-05-01T06:43:09.339Z,148037.97
2023-05-01T06:44:11.719Z,148098.56
2023-05-01T06:45:14.051Z,148090.09
2023-05-01T06:46:16.256Z,148067.06
2023-05-01T06:47:18.394Z,148012.53
2023-05-01T06:48:20.721Z,148065.84
2023-05-01T06:49:23.255Z,148094.94
2023-05-01T06:50:25.442Z,148080.38
2023-05-01T06:51:27.650Z,148140.97
2023-05-01T06:52:29.852Z,148140.97
2023-05-01T06:53:32.389Z,148222.22
2023-05-01T06:54:34.541Z,148208.84
2023-05-01T06:55:37.014Z,148206.44
2023-05-01T06:56:39.827Z,148259.84
2023-05-01T06:57:42.839Z,148299.84
2023-05-01T06:58:45.291Z,148335.00
2023-05-01T06:59:47.782Z,148398.09
2023-05-01T07:00:50.232Z,148407.78
2023-05-01T07:01:53.027Z,148451.47
2023-05-01T07:02:55.323Z,148517.00
2023-05-01T07:03:57.614Z,148542.44
2023-05-01T07:05:00.641Z,148577.66
2023-05-01T07:06:02.838Z,148642.00
2023-05-01T07:07:04.999Z,148621.38
2023-05-01T07:08:09.632Z,148722.13
2023-05-01T07:09:12.301Z,148756.13
2023-05-01T07:10:14.483Z,148768.25
2023-05-01T07:11:16.668Z,148861.78
2023-05-01T07:12:18.838Z,148971.09
2023-05-01T07:13:21.023Z,149034.28
2023-05-01T07:14:23.922Z,148956.53
2023-05-01T07:15:26.179Z,148933.44
2023-05-01T07:16:28.529Z,148942.00
2023-05-01T07:17:30.908Z,148909.19
2023-05-01T07:18:33.113Z,148883.66
2023-05-01T07:19:35.293Z,148837.50
2023-05-01T07:20:37.434Z,148855.75
2023-05-01T07:21:41.038Z,148958.97
2023-05-01T07:22:43.696Z,148890.94
2023-05-01T07:23:46.321Z,148978.41
2023-05-01T07:24:48.511Z,148984.50
2023-05-01T07:25:50.849Z,149112.13
2023-05-01T07:26:53.152Z,148992.97
2023-05-01T07:27:55.469Z,149058.59
2023-05-01T07:28:57.733Z,149267.72
2023-05-01T07:30:01.610Z,149250.66
2023-05-01T07:31:04.420Z,149351.63
2023-05-01T07:32:07.568Z,149491.47
2023-05-01T07:33:09.819Z,149553.53
2023-05-01T07:34:12.071Z,149676.47
2023-05-01T07:35:14.195Z,149771.41
2023-05-01T07:36:18.465Z,149877.38
2023-05-01T07:37:20.616Z,149795.81
2023-05-01T07:38:22.771Z,149878.59
2023-05-01T07:39:24.937Z,149957.75
2023-05-01T07:40:27.380Z,149733.69
2023-05-01T07:41:30.909Z,149712.97
2023-05-01T07:42:33.042Z,149676.47
2023-05-01T07:43:35.419Z,149682.56
2023-05-01T07:44:37.667Z,149717.84
2023-05-01T07:45:40.518Z,149703.25
2023-05-01T07:46:43.347Z,149753.13
2023-05-01T07:47:45.602Z,149817.69
2023-05-01T07:48:47.872Z,149888.31
2023-05-01T07:49:50.147Z,150028.44
2023-05-01T07:50:52.658Z,150054.00
2023-05-01T07:51:55.910Z,150034.53
2023-05-01T07:52:58.147Z,150008.94
2023-05-01T07:54:04.501Z,150077.16
2023-05-01T07:55:07.531Z,150066.19
2023-05-01T07:56:10.152Z,150038.16
2023-05-01T07:57:12.401Z,150019.88
2023-05-01T07:58:14.705Z,150022.38
2023-05-01T07:59:16.908Z,150006.50
2023-05-01T08:00:19.348Z,149896.88
2023-05-01T08:01:21.582Z,149909.03
2023-05-01T08:02:23.924Z,149917.53
2023-05-01T08:03:29.703Z,149951.63
2023-05-01T08:04:32.018Z,149861.56
2023-05-01T08:05:34.246Z,149962.63
2023-05-01T08:06:36.419Z,149896.88
2023-05-01T08:07:38.574Z,150091.78
2023-05-01T08:08:40.806Z,150111.25
2023-05-01T08:09:43.067Z,150274.59
2023-05-01T08:10:45.275Z,150264.84
2023-05-01T08:11:47.445Z,150434.31
2023-05-01T08:12:49.572Z,150563.59
2023-05-01T08:13:51.748Z,150777.16
2023-05-01T08:14:53.912Z,150573.38
2023-05-01T08:15:59.175Z,150566.06
2023-05-01T08:17:01.393Z,150627.06
2023-05-01T08:18:03.669Z,150738.03
2023-05-01T08:19:05.893Z,150797.88
2023-05-01T08:20:08.907Z,150753.97
2023-05-01T08:21:11.208Z,150734.38
2023-05-01T08:22:14.139Z,150566.06
2023-05-01T08:23:17.261Z,150651.47
2023-05-01T08:24:19.475Z,150753.97
2023-05-01T08:25:21.668Z,150639.22
2023-05-01T08:26:23.872Z,150522.13
2023-05-01T08:27:26.435Z,150497.72
2023-05-01T08:28:28.653Z,150546.47
2023-05-01T08:29:30.966Z,150622.19
2023-05-01T08:30:33.098Z,150603.88
2023-05-01T08:31:37.809Z,150462.38
2023-05-01T08:32:40.097Z,150600.22
2023-05-01T08:33:43.028Z,150602.66
2023-05-01T08:34:45.170Z,150572.16
2023-05-01T08:35:48.601Z,150551.41
2023-05-01T08:36:50.913Z,150485.56
2023-05-01T08:37:53.018Z,150638.00
2023-05-01T08:38:55.188Z,150546.47
2023-05-01T08:39:57.620Z,150612.38
2023-05-01T08:41:01.650Z,150569.72
2023-05-01T08:42:04.629Z,150661.19
2023-05-01T08:43:06.885Z,150623.41
2023-05-01T08:44:10.732Z,150702.66
2023-05-01T08:45:13.179Z,150625.84
2023-05-01T08:46:47.046Z,150794.22
2023-05-01T08:47:49.942Z,150730.75
2023-05-01T08:48:56.047Z,150773.47
2023-05-01T08:50:00.236Z,150723.44
2023-05-01T08:51:04.113Z,150747.88
2023-05-01T08:52:07.600Z,150876.03
2023-05-01T08:53:12.265Z,150827.19
2023-05-01T08:54:15.484Z,150854.03
2023-05-01T08:55:19.697Z,150954.16
2023-05-01T08:56:23.591Z,150930.97
2023-05-01T08:57:27.358Z,151086.00
2023-05-01T08:58:30.963Z,151238.72
2023-05-01T08:59:35.374Z,151247.28
2023-05-01T09:00:39.348Z,151254.63
2023-05-01T09:01:43.579Z,151254.63
2023-05-01T09:02:48.486Z,151237.47
2023-05-01T09:03:53.030Z,151122.69
2023-05-01T09:04:56.646Z,151154.44
2023-05-01T09:06:00.217Z,151180.09
2023-05-01T09:07:02.818Z,151254.63
2023-05-01T09:08:05.005Z,151139.81
2023-05-01T09:09:07.134Z,151199.59
2023-05-01T09:10:10.104Z,151323.03
2023-05-01T09:11:12.398Z,151303.47
2023-05-01T09:12:27.277Z,151326.69
2023-05-01T09:13:30.838Z,151349.91
2023-05-01T09:14:33.229Z,151298.59
2023-05-01T09:15:35.911Z,151276.63
2023-05-01T09:16:38.136Z,151319.38
2023-05-01T09:17:40.625Z,151393.88
2023-05-01T09:18:43.200Z,151483.16
2023-05-01T09:19:45.384Z,151508.81
2023-05-01T09:20:47.644Z,151442.84
2023-05-01T09:21:49.834Z,151429.38
2023-05-01T09:22:52.148Z,151356.03
2023-05-01T09:23:54.301Z,151239.94
2023-05-01T09:24:56.448Z,151298.59
2023-05-01T09:25:59.758Z,151244.81
2023-05-01T09:27:01.911Z,151181.31
2023-05-01T09:28:07.620Z,151264.38
2023-05-01T09:29:10.301Z,151134.88
2023-05-01T09:30:31.608Z,151258.28
2023-05-01T09:31:34.931Z,151291.28
2023-05-01T09:32:37.718Z,151352.34
2023-05-01T09:33:58.302Z,151424.47
2023-05-01T09:35:11.949Z,151634.78
2023-05-01T09:36:17.758Z,151645.75
2023-05-01T09:37:31.393Z,151780.31
2023-05-01T09:38:33.613Z,151653.09
2023-05-01T09:39:35.853Z,151748.50
2023-05-01T09:40:38.723Z,151570.00
2023-05-01T09:41:51.446Z,151812.09
2023-05-01T09:42:56.208Z,151643.31
2023-05-01T09:43:59.282Z,151692.19
2023-05-01T09:45:03.704Z,151737.53
2023-05-01T09:46:12.869Z,151920.97
2023-05-01T09:47:22.916Z,151885.50
2023-05-01T09:48:25.181Z,151791.28
2023-05-01T09:49:45.622Z,151967.50
2023-05-01T09:50:48.307Z,151741.19
2023-05-01T09:51:50.498Z,151807.22
2023-05-01T09:52:52.688Z,151984.59
2023-05-01T09:53:59.257Z,152081.28
2023-05-01T09:55:15.824Z,152013.97
2023-05-01T09:56:18.806Z,152073.97
2023-05-01T09:57:35.837Z,152225.72
2023-05-01T09:58:38.014Z,152375.13
2023-05-01T09:59:40.160Z,152241.66
2023-05-01T10:00:49.639Z,152078.84
2023-05-01T10:01:52.475Z,152162.13
2023-05-01T10:02:55.020Z,152193.94
2023-05-01T10:03:57.454Z,152238.00
2023-05-01T10:05:00.191Z,152342.09
2023-05-01T10:06:04.239Z,152201.28
2023-05-01T10:07:14.037Z,152213.50
2023-05-01T10:08:16.564Z,152081.28
2023-05-01T10:09:28.785Z,152023.78
2023-05-01T10:10:31.109Z,151920.97
2023-05-01T10:11:55.578Z,151829.19
2023-05-01T10:13:14.317Z,151774.19
2023-05-01T10:14:16.651Z,151741.19
2023-05-01T10:15:25.376Z,151834.13
2023-05-01T10:16:30.284Z,151851.22
2023-05-01T10:17:33.878Z,151764.38
2023-05-01T10:18:36.691Z,151760.72
2023-05-01T10:19:38.973Z,151760.72
2023-05-01T10:20:41.293Z,151736.28
2023-05-01T10:21:44.065Z,151697.09
2023-05-01T10:22:46.643Z,151676.34
2023-05-01T10:23:48.977Z,151455.03
2023-05-01T10:24:52.232Z,151213.06
2023-05-01T10:25:56.133Z,151318.16
2023-05-01T10:26:59.709Z,151371.94
2023-05-01T10:28:04.726Z,151511.25
2023-05-01T10:29:07.243Z,151447.72
2023-05-01T10:30:10.289Z,151477.06
2023-05-01T10:31:13.188Z,151481.94
2023-05-01T10:32:15.470Z,151650.66
2023-05-01T10:33:18.395Z,151653.09
2023-05-01T10:34:24.152Z,151621.31
2023-05-01T10:35:34.393Z,151721.59
2023-05-01T10:36:50.932Z,151579.75
2023-05-01T10:38:02.432Z,151467.25
2023-05-01T10:39:04.849Z,151379.25
2023-05-01T10:40:39.397Z,151636.00
2023-05-01T10:42:01.781Z,151582.19
2023-05-01T10:43:13.394Z,151667.78
2023-05-01T10:44:24.155Z,151631.06
2023-05-01T10:45:30.102Z,151799.88
2023-05-01T10:46:32.262Z,151813.31
2023-05-01T10:47:35.286Z,151695.88
2023-05-01T10:48:43.979Z,151741.19
2023-05-01T10:50:21.805Z,151743.63
2023-05-01T10:51:28.366Z,151947.91
2023-05-01T10:52:31.294Z,152107.00
2023-05-01T10:53:33.419Z,152122.88
2023-05-01T10:54:35.713Z,152137.59
2023-05-01T10:55:45.371Z,152280.81
2023-05-01T10:56:48.122Z,152193.94
2023-05-01T10:57:50.828Z,152257.56
2023-05-01T10:58:52.924Z,152174.34
2023-05-01T11:00:04.082Z,152313.91
2023-05-01T11:01:45.337Z,152565.00
2023-05-01T11:02:47.580Z,152678.94
2023-05-01T11:03:49.945Z,152678.94
2023-05-01T11:04:54.302Z,152754.97
2023-05-01T11:06:05.543Z,152997.69
2023-05-01T11:07:08.475Z,153051.59
2023-05-01T11:08:30.347Z,153062.66
2023-05-01T11:09:55.327Z,152826.03
2023-05-01T11:10:57.901Z,152780.66
2023-05-01T11:12:00.063Z,152826.03
2023-05-01T11:13:02.307Z,152732.91
2023-05-01T11:14:10.906Z,152865.28
2023-05-01T11:15:25.826Z,152904.47
2023-05-01T11:16:37.367Z,152732.91
2023-05-01T11:17:39.622Z,152615.22
2023-05-01T11:18:47.940Z,152656.91
2023-05-01T11:19:50.440Z,152606.69
2023-05-01T11:20:52.638Z,152460.91
2023-05-01T11:21:55.721Z,152527.03
2023-05-01T11:22:58.556Z,152598.13
2023-05-01T11:24:01.579Z,152681.38
2023-05-01T11:25:17.427Z,152674.03
2023-05-01T11:26:22.524Z,152808.84
2023-05-01T11:27:25.228Z,152904.47
2023-05-01T11:28:31.161Z,153028.34
2023-05-01T11:29:33.837Z,152929.00
2023-05-01T11:30:40.383Z,152911.81
2023-05-01T11:31:42.680Z,153046.69
2023-05-01T11:32:46.666Z,153122.78
2023-05-01T11:33:49.049Z,153249.09
2023-05-01T11:34:52.227Z,153181.59
2023-05-01T11:35:59.235Z,153201.25
2023-05-01T11:37:01.583Z,153034.47
2023-05-01T11:38:03.747Z,153090.84
2023-05-01T11:39:06.183Z,153220.94
2023-05-01T11:40:23.378Z,153242.97
2023-05-01T11:41:27.230Z,153247.84
2023-05-01T11:42:29.489Z,152882.41
2023-05-01T11:43:32.250Z,152708.38
2023-05-01T11:44:34.630Z,152629.97
2023-05-01T11:45:37.720Z,152500.09
2023-05-01T11:46:40.325Z,152527.03
2023-05-01T11:47:42.675Z,152637.31
2023-05-01T11:48:49.534Z,152720.63
2023-05-01T11:49:53.454Z,152904.47
2023-05-01T11:50:55.915Z,152773.31
2023-05-01T11:51:58.730Z,152607.91
2023-05-01T11:53:01.077Z,152513.53
2023-05-01T11:54:11.286Z,152601.78
2023-05-01T11:55:14.494Z,152557.66
2023-05-01T11:56:27.123Z,152492.75
2023-05-01T11:57:29.740Z,152605.44
2023-05-01T11:58:33.570Z,152800.28
2023-05-01T11:59:35.773Z,152905.72
2023-05-01T12:00:42.575Z,152837.09
2023-05-01T12:01:46.673Z,152833.38
2023-05-01T12:02:59.500Z,152919.16
2023-05-01T12:04:03.121Z,152893.47
2023-05-01T12:05:18.202Z,152933.91
2023-05-01T12:06:20.543Z,152747.59
2023-05-01T12:07:23.614Z,152479.25
2023-05-01T12:08:26.171Z,152353.09
2023-05-01T12:09:29.006Z,152453.53
2023-05-01T12:10:32.234Z,152541.72
2023-05-01T12:11:36.235Z,152525.81
2023-05-01T12:12:38.656Z,152387.38
2023-05-01T12:13:41.796Z,152402.09
2023-05-01T12:14:44.155Z,152360.47
2023-05-01T12:15:48.143Z,152304.13
2023-05-01T12:16:50.817Z,152286.94
2023-05-01T12:17:53.270Z,152061.75
2023-05-01T12:18:55.629Z,152191.47
2023-05-01T12:19:57.878Z,152349.41
2023-05-01T12:21:00.088Z,152204.94
2023-05-01T12:22:08.601Z,152093.50